Time;durP1;ratioP1;P1;durP2;ratioP2;P2;SDS_P1;SDS_P2;PMS_P1;PMS_P2;Temp;Humidity;BMP_temperature;BMP_pressure;BME280_temperature;BME280_humidity;BME280_pressure;Samples;Min_cycle;Max_cycle;Signal;HPM_P1;HPM_P2
2022/06/07 04:52:21;;;;;;;9.50;3.20;;;;;;;13.68;80.22;101348.91;5077999;27;126798;-35
2022/06/07 04:54:46;;;;;;;6.78;2.88;;;;;;;13.74;80.43;101350.31;5098082;27;98368;-34
2022/06/07 04:57:12;;;;;;;8.93;3.22;;;;;;;13.76;80.41;101348.38;5097840;27;96583;-34
2022/06/07 04:59:37;;;;;;;6.40;3.10;;;;;;;13.80;80.41;101363.53;5098208;27;96850;-34
2022/06/07 05:02:03;;;;;;;9.25;3.53;;;;;;;13.82;80.20;101358.84;5097622;27;97345;-34
2022/06/07 05:04:29;;;;;;;8.10;3.15;;;;;;;13.80;80.41;101355.38;5079393;27;101465;-34
2022/06/07 05:06:54;;;;;;;6.78;3.10;;;;;;;13.87;80.47;101367.59;5097982;27;96614;-34
2022/06/07 05:09:22;;;;;;;6.65;3.58;;;;;;;13.86;80.38;101356.81;5097611;27;96888;-34
2022/06/07 05:11:49;;;;;;;9.32;3.25;;;;;;;13.87;79.73;101359.44;5077457;27;101443;-34
2022/06/07 05:14:15;;;;;;;10.10;3.97;;;;;;;13.90;79.85;101364.66;5078730;27;101053;-34
2022/06/07 05:16:43;;;;;;;7.57;3.22;;;;;;;13.95;79.92;101369.81;5078888;27;97213;-34
2022/06/07 05:19:10;;;;;;;5.55;3.25;;;;;;;13.96;79.97;101364.22;5097676;27;96847;-34
2022/06/07 05:21:37;;;;;;;5.95;2.92;;;;;;;13.96;79.94;101368.81;5097386;27;97778;-34
2022/06/07 05:24:03;;;;;;;5.82;3.55;;;;;;;13.96;79.93;101369.69;5078489;27;100892;-34
2022/06/07 05:26:38;;;;;;;12.93;4.32;;;;;;;13.96;79.68;101364.22;5078999;27;96788;-34
2022/06/07 05:29:04;;;;;;;8.18;3.35;;;;;;;14.09;79.69;101377.06;5098088;27;96596;-34
2022/06/07 05:31:29;;;;;;;7.88;3.47;;;;;;;14.05;79.18;101368.19;5097380;27;97480;-34
2022/06/07 05:33:55;;;;;;;7.45;3.42;;;;;;;14.08;79.34;101375.28;5096867;27;97841;-34
2022/06/07 05:36:21;;;;;;;7.18;3.15;;;;;;;14.10;79.08;101368.75;5097006;27;96481;-34
2022/06/07 05:38:47;;;;;;;5.53;2.95;;;;;;;14.13;78.92;101371.25;5097555;27;96698;-34
2022/06/07 05:41:29;;;;;;;7.00;3.38;;;;;;;14.15;78.81;101373.88;5078348;27;101006;-34
2022/06/07 05:43:55;;;;;;;10.07;2.78;;;;;;;14.18;78.93;101365.50;5096790;27;97820;-34
2022/06/07 05:46:20;;;;;;;6.28;3.53;;;;;;;14.21;79.00;101368.91;5078672;27;96795;-34
2022/06/07 05:48:46;;;;;;;10.35;3.35;;;;;;;14.20;79.10;101358.09;5097067;27;96855;-34
2022/06/07 05:51:11;;;;;;;10.10;3.85;;;;;;;14.19;78.74;101361.81;5097117;27;97522;-34
2022/06/07 05:53:37;;;;;;;5.93;3.08;;;;;;;14.20;78.63;101369.88;5096664;27;97569;-34
2022/06/07 05:56:11;;;;;;;5.45;3.13;;;;;;;14.20;78.57;101363.53;5096949;27;96591;-34
2022/06/07 05:58:37;;;;;;;4.93;2.80;;;;;;;14.26;78.88;101371.31;5097432;27;96606;-34
2022/06/07 06:01:04;;;;;;;7.40;3.45;;;;;;;14.31;78.68;101381.91;5077673;27;101052;-34
2022/06/07 06:03:30;;;;;;;5.45;2.92;;;;;;;14.31;78.26;101368.28;5096555;27;97776;-34
2022/06/07 06:05:55;;;;;;;7.93;3.67;;;;;;;14.35;78.21;101377.97;5078229;27;96546;-34
2022/06/07 06:11:23;;;;;;;8.82;3.35;;;;;;;14.46;78.14;101375.38;5032420;28;97357;-34
2022/06/07 06:13:49;;;;;;;7.38;3.42;;;;;;;14.48;78.01;101361.66;5065202;27;100049;-34
2022/06/07 06:16:18;;;;;;;5.93;3.00;;;;;;;14.54;77.85;101366.69;5096753;27;96414;-34
2022/06/07 06:18:45;;;;;;;7.63;2.97;;;;;;;14.59;77.90;101381.75;5078647;27;96693;-34
2022/06/07 06:21:11;;;;;;;10.88;3.38;;;;;;;14.56;77.68;101375.63;5077399;27;100893;-34
2022/06/07 06:23:36;;;;;;;7.40;3.33;;;;;;;14.63;77.29;101382.41;5096250;27;97395;-34
2022/06/07 06:26:07;;;;;;;7.57;3.17;;;;;;;14.60;77.15;101385.34;5096373;27;96445;-34
2022/06/07 06:28:33;;;;;;;11.13;3.30;;;;;;;14.62;77.67;101377.94;5078145;27;96757;-34
2022/06/07 06:31:02;;;;;;;6.10;3.15;;;;;;;14.67;77.34;101393.97;5095915;27;109316;-34
2022/06/07 06:33:27;;;;;;;8.20;3.67;;;;;;;14.71;77.75;101390.94;5096047;27;99292;-35
2022/06/07 06:35:54;;;;;;;7.95;3.38;;;;;;;14.75;77.61;101386.13;5096276;27;96618;-34
2022/06/07 06:38:21;;;;;;;8.80;3.92;;;;;;;14.77;77.64;101379.56;5077784;27;96955;-33
2022/06/07 06:40:47;;;;;;;7.53;3.28;;;;;;;14.74;77.28;101371.63;5077507;27;101049;-34
2022/06/07 06:43:15;;;;;;;6.22;3.35;;;;;;;14.81;77.04;101381.13;5077654;27;101158;-34
2022/06/07 06:45:42;;;;;;;5.78;3.13;;;;;;;14.89;77.01;101376.97;5077798;27;96601;-34
2022/06/07 06:48:09;;;;;;;9.07;3.78;;;;;;;14.97;77.21;101389.09;5077680;27;96880;-34
2022/06/07 06:50:36;;;;;;;9.48;3.63;;;;;;;14.98;76.87;101379.03;5076857;27;100877;-34
2022/06/07 06:53:02;;;;;;;8.48;3.28;;;;;;;15.04;77.04;101387.66;5076760;27;100790;-34
2022/06/07 06:55:27;;;;;;;7.40;3.70;;;;;;;15.06;75.99;101379.34;5096027;27;96551;-34
2022/06/07 06:57:52;;;;;;;9.73;3.72;;;;;;;15.06;75.90;101388.44;5095942;27;97486;-33
2022/06/07 07:00:18;;;;;;;5.90;3.53;;;;;;;15.16;75.94;101399.56;5095868;27;97928;-34
2022/06/07 07:02:44;;;;;;;7.68;3.03;;;;;;;15.12;75.81;101397.16;5095666;27;99549;-34
2022/06/07 07:05:15;;;;;;;16.25;3.72;;;;;;;15.14;75.91;101393.34;5077268;27;96594;-34
2022/06/07 07:07:42;;;;;;;12.25;4.03;;;;;;;15.08;75.81;101391.03;5096214;27;96770;-34
2022/06/07 07:10:09;;;;;;;8.70;4.35;;;;;;;15.10;75.99;101397.25;5076961;27;101041;-34
2022/06/07 07:12:35;;;;;;;7.20;3.72;;;;;;;15.03;75.88;101388.63;5095296;27;99461;-34
2022/06/07 07:15:01;;;;;;;7.97;3.65;;;;;;;15.05;75.32;101385.81;5076861;27;96511;-34
2022/06/07 07:17:26;;;;;;;8.00;3.70;;;;;;;15.05;75.74;101389.41;5095819;27;96776;-33
2022/06/07 07:19:52;;;;;;;11.05;3.83;;;;;;;15.11;75.75;101396.28;5076938;27;99930;-33
2022/06/07 07:22:18;;;;;;;7.50;3.85;;;;;;;15.16;75.69;101406.84;5076917;27;100876;-33
2022/06/07 07:24:44;;;;;;;7.70;3.35;;;;;;;15.12;75.08;101383.50;5096032;27;96505;-33
2022/06/07 07:27:09;;;;;;;10.23;3.70;;;;;;;15.17;75.68;101387.66;5095944;27;96789;-33
2022/06/07 07:29:37;;;;;;;7.88;3.60;;;;;;;15.22;75.51;101399.09;5095487;27;98075;-33
2022/06/07 07:32:03;;;;;;;8.82;3.60;;;;;;;15.18;75.30;101396.69;5095653;27;99009;-34
2022/06/07 07:34:29;;;;;;;9.13;4.35;;;;;;;15.25;75.44;101404.34;5079035;27;96836;-33
2022/06/07 07:36:55;;;;;;;7.25;3.80;;;;;;;15.25;75.29;101396.16;5099233;27;96951;-33
2022/06/07 07:39:21;;;;;;;7.55;3.92;;;;;;;15.29;75.15;101402.25;5098290;27;99254;-33
2022/06/07 07:41:48;;;;;;;12.95;3.97;;;;;;;15.27;75.39;101399.63;5080332;27;100983;-33
2022/06/07 07:44:16;;;;;;;7.35;3.28;;;;;;;15.35;75.28;101407.28;5080499;27;96579;-33
2022/06/07 07:46:43;;;;;;;9.77;3.35;;;;;;;15.31;75.04;101396.69;5080359;27;96779;-33
2022/06/07 07:49:12;;;;;;;7.45;3.88;;;;;;;15.37;75.23;101409.88;5098926;27;97917;-33
2022/06/07 07:51:39;;;;;;;10.50;3.70;;;;;;;15.36;75.22;101414.47;5080155;27;100626;-33
2022/06/07 07:54:07;;;;;;;10.07;4.60;;;;;;;15.38;75.08;101398.00;5080136;27;96834;-33
2022/06/07 07:56:33;;;;;;;10.18;3.92;;;;;;;15.42;75.03;101407.69;5080807;27;96836;-33
2022/06/07 07:58:59;;;;;;;7.65;3.55;;;;;;;15.42;75.30;101399.50;5079935;27;100944;-33
2022/06/07 08:01:27;;;;;;;8.88;3.65;;;;;;;15.46;74.80;101414.69;5098659;27;97783;-33
2022/06/07 08:03:54;;;;;;;8.85;4.03;;;;;;;15.36;75.15;101397.22;5079721;27;96674;-33
2022/06/07 08:06:21;;;;;;;7.80;3.75;;;;;;;15.40;75.01;101406.97;5080414;27;96876;-33
2022/06/07 08:08:50;;;;;;;10.48;3.95;;;;;;;15.40;75.23;101415.16;5079970;27;100868;-33
2022/06/07 08:11:19;;;;;;;6.85;3.33;;;;;;;15.39;75.02;101416.09;5079759;27;101100;-33
2022/06/07 08:13:45;;;;;;;10.02;3.60;;;;;;;15.34;75.33;101402.78;5079918;27;96802;-33
2022/06/07 08:16:12;;;;;;;7.18;3.17;;;;;;;15.44;75.48;101408.44;5080169;27;96825;-33
2022/06/07 08:18:38;;;;;;;7.47;3.33;;;;;;;15.51;74.73;101416.06;5079840;27;100905;-33
2022/06/07 08:21:08;;;;;;;7.78;3.78;;;;;;;15.51;74.79;101405.16;5080054;27;100532;-33
2022/06/07 08:23:34;;;;;;;10.23;4.20;;;;;;;15.54;74.40;101400.47;5098318;27;96552;-33
2022/06/07 08:26:04;;;;;;;6.85;3.80;;;;;;;15.68;74.51;101406.66;5079820;27;96843;-33
2022/06/07 08:28:30;;;;;;;9.00;3.80;;;;;;;15.69;74.36;101399.34;5097521;27;97459;-33
2022/06/07 08:30:56;;;;;;;10.57;4.38;;;;;;;15.75;74.27;101396.16;5079503;27;100787;-33
2022/06/07 08:39:05;;;;;;;8.25;3.67;;;;;;;15.96;74.00;101403.75;5098404;27;97010;-33
2022/06/07 08:41:35;;;;;;;7.00;4.07;;;;;;;16.02;73.71;101406.03;5098055;27;97806;-33
2022/06/07 08:44:12;;;;;;;8.68;3.72;;;;;;;16.19;73.24;101402.88;5097987;27;96558;-33
2022/06/07 08:46:39;;;;;;;6.30;3.45;;;;;;;16.22;73.03;101394.44;5080061;27;96842;-33
2022/06/07 08:49:05;;;;;;;10.02;3.60;;;;;;;16.36;72.12;101396.13;5079043;27;100918;-34
2022/06/07 08:51:46;;;;;;;10.45;4.07;;;;;;;16.47;72.42;101392.53;5079152;27;101141;-33
2022/06/07 08:54:17;;;;;;;8.15;4.38;;;;;;;16.60;72.12;101400.66;5078457;27;96948;-33
2022/06/07 08:56:44;;;;;;;11.30;4.28;;;;;;;16.66;72.14;101397.44;5098347;27;96535;-33
2022/06/07 08:59:20;;;;;;;8.35;4.07;;;;;;;16.68;72.15;101398.19;5079184;27;100943;-33
2022/06/07 09:02:41;;;;;;;12.70;4.43;;;;;;;16.58;71.94;101383.50;5097558;27;98851;-33
2022/06/07 09:05:11;;;;;;;6.82;3.25;;;;;;;16.69;71.66;101402.69;5014090;28;96982;-33
2022/06/07 09:07:36;;;;;;;10.05;3.88;;;;;;;16.67;71.77;101396.47;5014054;28;97365;-33
2022/06/07 09:13:15;;;;;;;10.10;4.05;;;;;;;16.58;71.22;101397.19;5098263;27;97033;-33
2022/06/07 09:15:42;;;;;;;7.13;3.55;;;;;;;16.62;71.61;101402.28;5097747;27;96519;-33
2022/06/07 09:18:07;;;;;;;10.02;3.65;;;;;;;16.71;71.53;101387.91;5079108;27;96884;-33
2022/06/07 09:21:16;;;;;;;8.07;4.15;;;;;;;16.68;71.09;101403.66;5096862;27;97872;-33
2022/06/07 09:23:46;;;;;;;8.80;3.47;;;;;;;16.64;71.31;101388.50;5066438;27;99415;-33
2022/06/07 09:26:18;;;;;;;9.20;4.00;;;;;;;16.71;71.48;101401.56;5078946;27;96602;-33
2022/06/07 09:28:47;;;;;;;7.72;3.78;;;;;;;16.78;70.70;101401.97;5079049;27;96723;-34
2022/06/07 09:31:20;;;;;;;12.68;4.00;;;;;;;16.79;71.48;101391.91;5078543;27;100520;-34
2022/06/07 09:33:51;;;;;;;8.02;4.13;;;;;;;16.86;70.60;101399.50;5078359;27;100969;-34
2022/06/07 09:36:18;;;;;;;8.35;3.63;;;;;;;16.83;70.64;101397.03;5078860;27;96609;-33
2022/06/07 09:38:55;;;;;;;6.47;3.45;;;;;;;16.90;71.19;101401.03;5097633;27;96824;-33
2022/06/07 09:41:38;;;;;;;9.50;4.03;;;;;;;16.93;70.00;101399.91;5078359;27;100803;-33
2022/06/07 09:44:21;;;;;;;9.25;4.28;;;;;;;16.91;70.05;101413.69;5078284;27;100797;-34
2022/06/07 09:46:50;;;;;;;9.57;3.90;;;;;;;16.93;70.67;101389.81;5096662;27;96528;-33
2022/06/07 09:49:26;;;;;;;9.85;3.95;;;;;;;17.03;70.61;101400.03;5078817;27;96891;-33
2022/06/07 09:51:53;;;;;;;6.38;3.45;;;;;;;17.01;70.84;101399.28;5078065;27;101149;-33
2022/06/07 09:54:20;;;;;;;13.85;4.72;;;;;;;17.05;70.61;101390.72;5096274;27;99340;-33
2022/06/07 09:56:55;;;;;;;9.02;3.95;;;;;;;17.11;70.35;101403.03;5077922;27;96532;-33
2022/06/07 09:59:42;;;;;;;10.05;4.43;;;;;;;17.06;70.16;101406.13;5097169;27;96833;-33
2022/06/07 10:02:31;;;;;;;7.88;3.53;;;;;;;17.04;70.49;101412.72;5078050;27;100709;-33
2022/06/07 10:05:13;;;;;;;9.32;3.70;;;;;;;16.97;69.97;101406.84;5078430;27;101059;-33
2022/06/07 10:08:14;;;;;;;9.32;4.05;;;;;;;16.93;70.61;101402.66;5078277;27;96555;-33
2022/06/07 10:10:54;;;;;;;8.15;4.43;;;;;;;16.85;70.49;101391.41;5078328;27;96758;-33
2022/06/07 10:13:25;;;;;;;9.65;4.38;;;;;;;16.89;70.28;101406.59;5095707;27;99543;-33
2022/06/07 10:16:04;;;;;;;12.02;4.65;;;;;;;16.85;70.68;101397.78;5096513;27;99307;-33
2022/06/07 10:19:08;;;;;;;9.18;4.60;;;;;;;16.90;70.86;101403.75;5078316;27;96653;-33
2022/06/07 10:22:00;;;;;;;7.78;4.13;;;;;;;16.96;70.96;101399.66;5096560;27;96529;-33
2022/06/07 10:25:01;;;;;;;9.93;4.38;;;;;;;17.00;70.84;101403.03;5077811;27;101274;-33
2022/06/07 10:27:39;;;;;;;9.68;4.72;;;;;;;16.98;70.96;101395.78;5072447;27;101270;-33
2022/06/07 10:30:15;;;;;;;11.48;4.55;;;;;;;17.09;70.64;101402.25;5078052;27;96730;-33
2022/06/07 10:33:08;;;;;;;13.13;4.85;;;;;;;17.28;69.85;101404.41;5078433;27;96811;-33
2022/06/07 10:35:42;;;;;;;12.57;5.03;;;;;;;17.40;70.31;101408.91;5095829;27;97983;-33
2022/06/07 10:38:32;;;;;;;10.43;4.70;;;;;;;17.50;70.01;101404.41;5096013;27;99136;-33
2022/06/07 10:41:07;;;;;;;11.85;5.05;;;;;;;17.61;69.43;101401.66;5077362;27;96480;-33
2022/06/07 10:44:11;;;;;;;10.10;5.40;;;;;;;17.70;70.10;101402.75;5096308;27;96798;-33
2022/06/07 10:46:40;;;;;;;8.75;4.25;;;;;;;17.73;70.22;101397.03;5061649;27;99162;-33
2022/06/07 10:49:29;;;;;;;15.55;5.72;;;;;;;17.70;69.85;101400.00;5077359;27;100988;-33
2022/06/07 10:55:26;;;;;;;10.70;4.82;;;;;;;17.76;69.86;101396.78;5096671;27;96654;-33
2022/06/07 10:57:56;;;;;;;9.80;4.32;;;;;;;17.77;69.12;101395.75;4991831;28;99341;-33
2022/06/07 11:00:30;;;;;;;11.73;5.07;;;;;;;17.77;69.81;101395.75;4975761;28;101197;-34
2022/06/07 11:03:26;;;;;;;9.63;5.15;;;;;;;17.80;69.56;101394.63;5032781;27;96762;-33
2022/06/07 11:09:20;;;;;;;16.53;5.40;;;;;;;18.27;68.53;101388.91;5096399;27;97016;-33
2022/06/07 11:11:48;;;;;;;12.18;5.65;;;;;;;18.76;67.50;101392.88;5080776;27;101005;-33
2022/06/07 11:14:52;;;;;;;12.85;5.22;;;;;;;19.27;67.00;101400.31;5080941;27;96895;-33
2022/06/07 11:17:33;;;;;;;10.25;5.03;;;;;;;19.39;65.56;101401.94;5095064;27;97001;-33
2022/06/07 11:20:01;;;;;;;14.52;5.55;;;;;;;19.32;66.51;101395.25;5099588;27;97977;-33
2022/06/07 11:22:35;;;;;;;12.15;5.47;;;;;;;19.48;65.42;101405.75;5080642;27;101393;-33
2022/06/07 11:25:21;;;;;;;12.73;5.55;;;;;;;19.69;65.92;101402.97;5081027;27;96521;-33
2022/06/07 11:27:57;;;;;;;11.90;5.53;;;;;;;19.55;65.31;101403.31;5081264;27;96793;-33
2022/06/07 11:30:34;;;;;;;14.90;5.47;;;;;;;19.37;65.74;101406.69;5080556;27;101225;-33
2022/06/07 11:33:00;;;;;;;10.55;5.13;;;;;;;19.18;65.25;101399.22;5098922;27;99115;-33
2022/06/07 11:35:41;;;;;;;14.02;4.32;;;;;;;18.96;66.61;101408.53;5080111;27;96871;-33
2022/06/07 11:38:34;;;;;;;9.90;5.15;;;;;;;18.70;67.23;101398.94;5099098;27;96846;-33
2022/06/07 11:41:37;;;;;;;10.77;5.93;;;;;;;18.49;68.09;101401.66;5093975;27;97917;-33
2022/06/07 11:44:10;;;;;;;9.90;5.22;;;;;;;18.37;67.32;101400.84;5080198;27;100797;-34
2022/06/07 11:46:35;;;;;;;15.40;5.57;;;;;;;18.36;67.97;101396.38;5099068;27;96492;-33
2022/06/07 11:49:24;;;;;;;11.98;4.97;;;;;;;18.76;67.71;101395.63;5099459;27;96782;-34
2022/06/07 11:52:11;;;;;;;11.20;5.22;;;;;;;18.99;67.56;101400.00;5098984;27;97518;-33
2022/06/07 11:54:45;;;;;;;11.27;5.50;;;;;;;19.02;66.99;101396.09;5098987;27;97854;-33
2022/06/07 11:57:35;;;;;;;11.43;5.15;;;;;;;19.16;66.72;101390.25;5099430;27;96754;-33
2022/06/07 12:00:19;;;;;;;13.57;6.22;;;;;;;19.19;66.34;101394.63;5099077;27;96652;-33
2022/06/07 12:03:11;;;;;;;12.43;5.63;;;;;;;19.22;66.12;101388.88;5098319;27;98168;-33
2022/06/07 12:05:40;;;;;;;11.55;4.65;;;;;;;19.35;66.76;101388.63;5098705;27;97804;-33
2022/06/07 12:08:32;;;;;;;11.80;5.93;;;;;;;19.28;65.77;101385.53;5098755;27;96491;-33
2022/06/07 12:11:20;;;;;;;11.07;5.22;;;;;;;19.20;66.57;101386.25;5098752;27;96732;-33
2022/06/07 12:13:52;;;;;;;10.52;5.30;;;;;;;19.27;66.96;101392.06;5098539;27;97987;-33
2022/06/07 12:16:30;;;;;;;11.73;6.43;;;;;;;19.26;66.64;101390.34;5079835;27;101361;-33
2022/06/07 12:18:58;;;;;;;9.75;5.10;;;;;;;19.45;67.00;101384.91;5079717;27;97084;-33
2022/06/07 12:21:25;;;;;;;10.75;5.32;;;;;;;19.62;66.44;101388.88;5080306;27;96872;-33
2022/06/07 12:24:03;;;;;;;9.95;4.60;;;;;;;19.82;65.01;101380.69;5079392;27;101840;-33
2022/06/07 12:26:34;;;;;;;7.70;4.03;;;;;;;19.92;65.45;101365.06;5079779;27;99009;-33
2022/06/07 12:29:21;;;;;;;9.15;4.50;;;;;;;20.31;65.02;101377.00;5079390;27;96584;-34
2022/06/07 12:32:00;;;;;;;10.45;3.95;;;;;;;20.53;62.92;101366.69;5083468;27;96887;-33
2022/06/07 12:34:32;;;;;;;7.60;4.43;;;;;;;20.56;64.21;101363.66;5098043;27;98005;-33
2022/06/07 12:37:09;;;;;;;12.05;4.07;;;;;;;20.81;63.74;101380.56;5079302;27;99066;-34
2022/06/07 12:39:53;;;;;;;8.90;4.80;;;;;;;20.96;63.30;101384.59;5098391;27;96495;-33
2022/06/07 12:42:20;;;;;;;11.23;4.93;;;;;;;20.81;63.27;101373.19;5079823;27;96873;-33
2022/06/07 12:44:53;;;;;;;9.55;4.55;;;;;;;20.71;63.29;101364.06;5078933;27;100772;-34
2022/06/07 12:48:01;;;;;;;12.18;4.93;;;;;;;20.77;63.33;101375.38;5098132;27;99291;-33
2022/06/07 12:50:33;;;;;;;8.27;3.97;;;;;;;20.76;62.33;101376.41;5098017;27;96505;-33
2022/06/07 12:52:59;;;;;;;7.97;4.30;;;;;;;20.94;63.15;101368.22;5097249;27;96916;-34
2022/06/07 12:55:29;;;;;;;12.73;4.85;;;;;;;21.14;62.20;101362.63;5078650;27;100983;-34
2022/06/07 12:58:01;;;;;;;7.93;4.10;;;;;;;21.16;62.58;101366.97;5079126;27;100709;-33
2022/06/07 13:00:39;;;;;;;6.72;4.03;;;;;;;20.92;61.36;101364.75;5079440;27;96757;-34
2022/06/07 13:03:28;;;;;;;8.30;4.47;;;;;;;21.05;62.15;101369.09;5079368;27;96758;-34
2022/06/07 13:05:59;;;;;;;7.40;4.38;;;;;;;21.15;62.49;101364.41;5097627;27;99426;-34
2022/06/07 13:09:11;;;;;;;9.48;4.35;;;;;;;21.34;62.25;101368.97;5078961;27;100891;-33
2022/06/07 13:11:37;;;;;;;9.35;4.57;;;;;;;21.41;62.44;101364.59;5097697;27;96450;-34
2022/06/07 13:14:04;;;;;;;10.93;4.63;;;;;;;21.52;61.71;101352.50;5097062;27;96859;-34
2022/06/07 13:16:39;;;;;;;9.02;4.78;;;;;;;21.61;60.79;101355.19;5075242;27;100956;-33
2022/06/07 13:19:13;;;;;;;10.05;4.55;;;;;;;21.70;60.47;101358.06;5076712;27;99186;-33
2022/06/07 13:21:59;;;;;;;7.30;3.97;;;;;;;21.68;61.03;101343.56;5057747;27;96665;-33
2022/06/07 13:24:35;;;;;;;7.88;3.67;;;;;;;21.72;60.12;101340.34;5077169;27;96692;-33
2022/06/07 13:27:03;;;;;;;6.97;4.20;;;;;;;21.84;61.17;101349.25;5058387;27;100686;-33
2022/06/07 13:29:34;;;;;;;7.40;4.05;;;;;;;21.75;58.37;101336.41;5058121;27;101551;-33
2022/06/07 13:32:02;;;;;;;7.70;3.75;;;;;;;21.79;60.84;101337.84;5057570;27;96682;-33
2022/06/07 13:34:35;;;;;;;11.52;5.28;;;;;;;21.90;60.20;101334.81;5058013;27;96790;-34
2022/06/07 13:37:06;;;;;;;7.85;4.13;;;;;;;21.92;59.78;101340.19;5076584;27;99573;-33
2022/06/07 13:39:35;;;;;;;7.03;3.77;;;;;;;21.98;60.31;101336.81;5077132;27;97535;-34
2022/06/07 13:42:16;;;;;;;7.40;3.10;;;;;;;21.96;59.56;101341.63;5058334;27;96760;-33
2022/06/07 13:45:04;;;;;;;7.40;3.28;;;;;;;21.96;59.16;101338.88;5076834;27;96827;-33
2022/06/07 13:47:35;;;;;;;8.23;3.10;;;;;;;22.00;59.63;101340.25;5075732;27;99841;-33
2022/06/07 13:53:22;;;;;;;5.00;3.20;;;;;;;21.95;58.64;101323.31;5075759;27;96881;-34
2022/06/07 13:56:03;;;;;;;6.07;3.42;;;;;;;21.87;57.85;101326.88;5058103;27;96715;-33
2022/06/07 13:58:30;;;;;;;7.03;3.20;;;;;;;21.81;59.13;101331.13;5057742;27;100808;-33
2022/06/07 14:00:59;;;;;;;8.20;3.92;;;;;;;21.85;59.31;101331.69;5057736;27;100953;-34
2022/06/07 14:03:32;;;;;;;5.70;3.30;;;;;;;21.91;59.80;101321.94;5057855;27;96569;-34
2022/06/07 14:05:58;;;;;;;6.15;3.55;;;;;;;21.84;59.47;101332.72;5058216;27;96853;-34
2022/06/07 14:08:23;;;;;;;6.43;3.60;;;;;;;21.85;59.52;101318.75;5076023;27;97991;-34
2022/06/07 14:10:49;;;;;;;7.82;3.10;;;;;;;21.88;58.11;101323.09;5076029;27;97211;-34
2022/06/07 14:13:15;;;;;;;7.90;3.22;;;;;;;21.78;59.67;101325.91;5075783;27;96915;-34
2022/06/07 14:15:42;;;;;;;8.88;2.80;;;;;;;21.79;59.45;101321.28;5057821;27;96837;-34
2022/06/07 14:18:14;;;;;;;5.03;2.70;;;;;;;21.84;58.68;101328.06;5057508;27;100938;-34
2022/06/07 14:20:41;;;;;;;5.07;2.72;;;;;;;21.73;58.95;101314.47;5058383;27;96668;-34
2022/06/07 14:23:11;;;;;;;4.60;2.58;;;;;;;21.64;56.79;101320.94;5057486;27;96472;-34
2022/06/07 14:25:36;;;;;;;3.25;2.30;;;;;;;21.58;57.83;101307.78;5057739;27;96774;-34
2022/06/07 14:28:02;;;;;;;4.50;2.58;;;;;;;21.58;58.57;101318.81;5075631;27;99415;-34
2022/06/07 14:30:28;;;;;;;3.80;2.28;;;;;;;21.62;58.27;101321.09;5057594;27;99119;-34
2022/06/07 14:32:57;;;;;;;5.43;2.97;;;;;;;21.53;57.91;101315.66;5075698;27;96788;-34
2022/06/07 14:35:26;;;;;;;11.68;2.83;;;;;;;21.47;59.17;101317.13;5057357;27;96908;-34
2022/06/07 14:37:54;;;;;;;6.65;2.63;;;;;;;21.44;58.35;101314.69;5056679;27;100824;-34
2022/06/07 14:40:42;;;;;;;5.95;3.08;;;;;;;21.42;57.27;101324.97;5075490;27;99432;-34
2022/06/07 14:43:09;;;;;;;6.68;2.22;;;;;;;21.36;58.87;101306.28;5075857;27;97019;-33
2022/06/07 14:45:45;;;;;;;4.53;2.70;;;;;;;21.41;59.47;101323.25;5057330;27;96561;-34
2022/06/07 14:48:24;;;;;;;8.65;2.45;;;;;;;21.19;58.15;101325.38;5057013;27;99250;-34
2022/06/07 14:50:49;;;;;;;6.13;3.05;;;;;;;21.13;58.89;101320.47;5057062;27;100870;-34
2022/06/07 14:53:15;;;;;;;4.97;2.42;;;;;;;21.00;59.35;101322.69;5075184;27;96856;-34
2022/06/07 14:55:40;;;;;;;6.25;2.55;;;;;;;20.98;59.54;101324.75;5057632;27;96895;-34
2022/06/07 14:58:06;;;;;;;4.45;2.65;;;;;;;20.97;59.85;101317.47;5074998;27;99237;-33
2022/06/07 15:00:33;;;;;;;3.92;2.10;;;;;;;21.04;59.84;101312.22;5075241;27;98793;-34
2022/06/07 15:03:01;;;;;;;4.63;2.55;;;;;;;21.14;59.24;101327.72;5056376;27;96633;-34
2022/06/07 15:05:30;;;;;;;5.10;2.70;;;;;;;21.02;59.35;101319.78;5056925;27;97016;-34
2022/06/07 15:08:03;;;;;;;5.18;2.63;;;;;;;20.95;59.14;101322.25;5056577;27;100755;-34
2022/06/07 15:10:32;;;;;;;4.60;2.70;;;;;;;20.97;59.51;101310.09;5056468;27;104198;-34
2022/06/07 15:12:58;;;;;;;4.90;3.00;;;;;;;21.01;59.59;101318.91;5056773;27;97008;-34
2022/06/07 15:15:24;;;;;;;6.03;2.60;;;;;;;21.02;59.07;101320.63;5075613;27;96793;-34
2022/06/07 15:17:54;;;;;;;10.90;3.00;;;;;;;21.00;59.89;101325.47;5075116;27;97884;-34
2022/06/07 15:20:26;;;;;;;6.60;3.05;;;;;;;21.07;59.80;101326.59;5075420;27;98825;-34
2022/06/07 15:22:54;;;;;;;6.80;3.65;;;;;;;21.07;60.02;101328.44;5056526;27;96730;-34
2022/06/07 15:25:24;;;;;;;7.47;3.75;;;;;;;20.98;59.86;101310.97;5075088;27;96826;-34
2022/06/07 15:27:49;;;;;;;11.23;3.85;;;;;;;20.88;60.31;101318.38;5055879;27;100726;-34
2022/06/07 15:30:16;;;;;;;7.03;4.00;;;;;;;20.84;59.08;101319.72;5074648;27;99741;-34
2022/06/07 15:32:42;;;;;;;11.02;3.85;;;;;;;20.72;60.45;101317.13;5056769;27;96581;-34
2022/06/07 15:35:18;;;;;;;8.23;3.55;;;;;;;20.57;59.91;101313.13;5056363;27;96844;-34
2022/06/07 15:37:46;;;;;;;9.93;4.65;;;;;;;20.60;60.17;101318.31;5056394;27;101412;-34
2022/06/07 15:40:13;;;;;;;11.75;4.20;;;;;;;20.47;60.67;101310.31;5074813;27;97908;-34
2022/06/07 15:42:48;;;;;;;8.65;3.58;;;;;;;20.50;60.48;101314.69;5056623;27;96641;-34
2022/06/07 15:45:23;;;;;;;6.63;3.65;;;;;;;20.53;59.64;101314.41;5056919;27;96722;-34
2022/06/07 15:47:59;;;;;;;8.15;4.32;;;;;;;20.51;60.19;101308.16;5056279;27;101453;-34
2022/06/07 15:50:25;;;;;;;7.70;4.00;;;;;;;20.54;60.53;101318.88;5055998;27;101181;-34
2022/06/07 15:52:51;;;;;;;6.63;3.85;;;;;;;20.55;60.42;101306.84;5074244;27;96826;-34
2022/06/07 15:55:17;;;;;;;6.75;3.60;;;;;;;20.55;60.57;101315.13;5076748;27;96671;-33
2022/06/07 16:00:27;;;;;;;10.15;3.50;;;;;;;20.53;60.64;101307.00;5078163;27;97061;-34
2022/06/07 16:02:53;;;;;;;5.53;3.38;;;;;;;20.54;60.67;101319.72;5059732;27;96681;-34
2022/06/07 16:05:18;;;;;;;9.48;4.60;;;;;;;20.45;59.38;101311.50;5078629;27;96919;-34
2022/06/07 16:07:44;;;;;;;5.95;3.40;;;;;;;20.43;60.22;101308.91;5077774;27;99503;-34
2022/06/07 16:10:10;;;;;;;8.48;4.15;;;;;;;20.37;60.72;101310.34;5078077;27;99451;-34
2022/06/07 16:12:36;;;;;;;6.60;3.58;;;;;;;20.27;60.83;101306.75;5059587;27;96891;-34
2022/06/07 16:15:03;;;;;;;7.07;3.50;;;;;;;20.23;60.59;101307.19;5077968;27;96585;-34
2022/06/07 16:17:29;;;;;;;6.53;3.03;;;;;;;20.21;60.44;101298.22;5077315;27;99436;-34
2022/06/07 16:19:54;;;;;;;6.38;3.15;;;;;;;20.20;60.60;101311.09;5059150;27;100796;-34
2022/06/07 16:22:19;;;;;;;6.90;3.53;;;;;;;20.20;60.80;101316.59;5078392;27;96628;-34
2022/06/07 16:24:45;;;;;;;4.95;2.60;;;;;;;20.13;60.16;101297.06;5059006;27;99586;-34
2022/06/07 16:33:18;;;;;;;5.20;2.80;;;;;;;20.10;59.55;101315.75;5077838;27;97357;-34
2022/06/07 16:35:23;;;;;;;5.53;2.25;;;;;;;20.02;60.35;101305.47;5078259;27;96549;-34
2022/06/07 16:37:49;;;;;;;4.35;2.47;;;;;;;20.05;60.32;101312.56;5077592;27;97905;-34
2022/06/07 16:40:14;;;;;;;4.22;2.45;;;;;;;20.01;60.48;101314.72;5077462;27;97923;-34
2022/06/07 16:42:39;;;;;;;4.65;2.55;;;;;;;19.92;60.17;101313.69;5077503;27;96704;-34
2022/06/07 16:45:05;;;;;;;5.22;2.33;;;;;;;19.93;60.18;101309.09;5077482;27;96818;-34
2022/06/07 16:47:31;;;;;;;4.90;2.33;;;;;;;19.82;60.62;101299.09;5077223;27;99509;-34
2022/06/07 16:49:56;;;;;;;5.32;2.55;;;;;;;19.84;60.47;101297.06;5077432;27;97770;-34
2022/06/07 16:52:21;;;;;;;3.83;2.05;;;;;;;19.89;60.63;101304.88;5075690;27;96520;-34
2022/06/07 16:54:47;;;;;;;5.00;2.65;;;;;;;19.76;60.36;101294.19;5077492;27;96651;-33
2022/06/07 16:57:27;;;;;;;6.90;2.38;;;;;;;19.73;60.47;101288.94;5077349;27;97865;-34
2022/06/07 16:59:53;;;;;;;11.48;2.40;;;;;;;19.73;60.55;101291.69;5077358;27;99238;-34
2022/06/07 17:02:19;;;;;;;7.40;2.90;;;;;;;19.70;60.79;101295.59;5059072;27;96582;-34
2022/06/07 17:04:45;;;;;;;3.78;2.25;;;;;;;19.64;61.11;101281.53;5077272;27;96822;-34